Track Таскаев Максим

Time Latitude Longitude Accuracy (66% radius in meters) Altitude (meters) Speed (km/hour) Bearing (degrees) Battery (%) GPS flag
08:41:56 60.370986 29.556296 6 77 0 321.06838989258 82 1 delete
08:41:44 60.370966 29.556316 6 74 0 306.59930419922 82 1 delete
08:41:32 60.370955 29.556318 6 77 0 306.59930419922 82 1 delete
08:41:20 60.370949 29.556323 4 71 0 306.59930419922 82 1 delete
08:41:07 60.370975 29.556356 6 75 0 306.59930419922 82 1 delete
08:40:55 60.370975 29.556356 4 75 0 306.59930419922 82 1 delete
08:40:43 60.370975 29.556356 6 75 0 306.59930419922 82 1 delete
08:40:31 60.370975 29.556356 4 75 0 306.59930419922 82 1 delete
08:40:18 60.370975 29.556356 4 75 0 306.59930419922 82 1 delete
08:40:06 60.370975 29.556356 4 75 0 306.59930419922 82 1 delete
08:39:53 60.370975 29.556356 6 75 0 306.59930419922 82 1 delete
08:39:41 60.370975 29.556356 6 75 0 306.59930419922 82 1 delete
08:39:28 60.370975 29.556356 6 75 0 306.59930419922 82 1 delete
08:39:16 60.370975 29.556356 6 75 0 306.59930419922 82 1 delete
08:39:03 60.370975 29.556356 6 75 0 306.59930419922 82 1 delete
08:38:51 60.370975 29.556356 6 75 0 306.59930419922 82 1 delete
08:38:39 60.370975 29.556356 6 75 0 306.59930419922 82 1 delete
08:38:27 60.370975 29.556356 6 75 0 306.59930419922 82 1 delete
08:38:15 60.370975 29.556356 6 75 0 306.59930419922 82 1 delete
08:38:02 60.370975 29.556356 6 75 0 306.59930419922 82 1 delete
08:37:50 60.370975 29.556356 8 75 0 306.59930419922 82 1 delete
08:37:37 60.370975 29.556356 4 75 0 306.59930419922 82 1 delete
08:37:25 60.370975 29.556356 6 75 0 306.59930419922 82 1 delete
08:37:24 60.370975 29.556356 6 75 0 306.59930419922 82 1 delete
08:37:13 60.370943 29.556490 6 77 0 306.59930419922 86 1 delete
08:37:00 60.370943 29.556490 6 77 0 306.59930419922 86 1 delete
08:36:48 60.370936 29.556516 4 76 1.5234271287918 307.98846435547 86 1 delete
08:36:47 60.370927 29.556549 4 76 1.6712319850922 310.07806396484 86 1 delete
08:36:44 60.370906 29.556621 6 76 1.2913475036621 313.18124389648 86 1 delete
08:36:39 60.370872 29.556692 4 75 1.467066526413 324.67169189453 86 1 delete
08:36:35 60.370820 29.556683 6 76 1.5014542341232 2.4274733066559 86 1 delete
08:36:34 60.370811 29.556682 6 77 1.7354475259781 6.4830369949341 86 1 delete
08:36:31 60.370772 29.556683 6 77 1.5115867853165 351.91635131836 86 1 delete
08:36:28 60.370726 29.556725 4 75 1.1897469758987 303.10522460938 86 1 delete
08:36:26 60.370694 29.556807 6 76 4.6449699401855 303.07641601562 86 1 delete
08:36:25 60.370661 29.556891 6 76 5.4247159957886 301.3464050293 86 1 delete
08:36:24 60.370623 29.556989 6 76 5.0695314407349 297.91946411133 86 1 delete
08:36:23 60.370590 29.557088 6 74 4.6447439193726 295.59448242188 86 1 delete
08:36:22 60.370568 29.557192 6 75 4.881712436676 275.73513793945 86 1 delete
08:36:20 60.370588 29.557363 6 75 5.8146533966064 216.96795654297 86 1 delete
08:36:19 60.370627 29.557409 4 75 6.3642311096191 197.13665771484 86 1 delete
08:36:18 60.370684 29.557431 4 77 6.2012410163879 171.3564453125 86 1 delete
08:36:17 60.370744 29.557405 4 77 6.2857437133789 146.53033447266 86 1 delete
08:36:16 60.370792 29.557342 4 78 6.4938349723816 142.7420501709 86 1 delete
08:36:15 60.370844 29.557260 6 79 6.5819697380066 142.37295532227 86 1 delete
08:36:14 60.370904 29.557167 6 81 6.5390448570251 142.03793334961 86 1 delete
08:36:13 60.370962 29.557084 6 82 6.6865177154541 145.90029907227 86 1 delete
08:36:12 60.371019 29.557016 6 83 6.5637626647949 160.63616943359 86 1 delete
08:36:11 60.371091 29.556977 6 84 6.1360340118408 178.90519714355 86 1 delete
08:36:10 60.371159 29.556981 6 85 4.6403741836548 198.33810424805 86 1 delete